RJAARKJK

Guest
Details From RJAA - NARITA INTL
To RKJK - KUNSAN AB
Flight Number -
Tags generated
Created
Modified
Stats Distance 672 nm / 1,245 km
Max Altitude 34,000 ft / 10,363 m
Waypoints 11
Social Downloads 2
Likes 0
Share VATSIM

Download

Looking for another format? Having issues loading an existing format? Contact us
Advertisement - Login to hide

Notes

Basic altitude profile: - Ascent Rate: 2500ft/min - Ascent Speed: 250kts - Cruise Altitude: 35000ft - Cruise Speed: 420kts - Descent Rate: 1500ft/min - Descent Speed: 250kts Options: - Use NATs: yes - Use PACOTS: yes - Use low airways: yes - Use high airways: yes

Route

RJAA CHINO Y16 SAPRA G585 KPO V549 DADGA RKJK

ID Type Via Altitude Latitude Longitude Leg Dist Tot Dist Heading (true) Name
O RJAA APT - 0 ft / 0 m 35.77655˚ 140.38277˚ - 0 nm - NARITA INTL
CHINO FIX - 30,600 ft / 9,327 m 35.88430˚ 138.56549˚ 88 nm 88 nm 275° / 274° -
KOCHO FIX Y16 (AWY-HI) 34,000 ft / 10,363 m 35.92061˚ 135.98941˚ 125 nm 214 nm 272° / 270° -
SAKYU FIX Y16 (AWY-HI) 34,000 ft / 10,363 m 35.91791˚ 134.64788˚ 65 nm 279 nm 270° / 269° -
SAPRA FIX Y16 (AWY-HI) 34,000 ft / 10,363 m 35.82389˚ 130.72361˚ 191 nm 470 nm 269° / 267° -
KPO VOR G585 (AWY-HI) 30,000 ft / 9,144 m 35.97747˚ 129.47433˚ 61 nm 531 nm 279° / 278° POHANG VORTAC
LATEP FIX V549 (AWY-HI) 24,800 ft / 7,559 m 35.90361˚ 129.08111˚ 19 nm 551 nm 257° / 257° -
TGU VOR V549 (AWY-HI) 20,600 ft / 6,279 m 35.81000˚ 128.59083˚ 24 nm 575 nm 257° / 257° DALSUNG VORTAC
OKISA FIX V549 (AWY-LO) 10,000 ft / 3,048 m 35.86389˚ 127.61444˚ 47 nm 623 nm 274° / 274° -
DADGA FIX V549 (AWY-LO) 7,000 ft / 2,134 m 35.89861˚ 126.89639˚ 35 nm 658 nm 274° / 273° -
O RKJK APT - 0 ft / 0 m 35.90376˚ 126.61589˚ 13 nm 672 nm 271° / 271° KUNSAN AB

Altitude Profile

Advertisement - Login to hide

Weather


0- 5 10 15 20 25 30 35+ Temperature / ° C

Clouds and Precipitation
Forecast for 2017-12-14 00:00 UTC. Updated 2 hours ago

Ground ~20,000 ft ~40,000 ft Winds

RJAA

Details ICAO RJAA (NRT)
Name NARITA INTL
Region Japan
Timezone Asia/Tokyo (UTC+9.0)
Stats Elevation 141 ft / 43 m (AMSL)
Location 35.776552° 140.382770°
Runways 2
Magnetic Variation 7.405° W

METAR

RJAA 132030Z 30007KT 9999 FEW030 01/M06 Q1018 NOSIG

Decode

TAF

TAF RJAA 131705Z 1318/1500 32008KT 9999 FEW030= TAF RJBB 131706Z 1318/1500 34015KT 9999 FEW020 BKN040 BECMG 1415/1418 06008KT

Decode

Departure Runways

ID Width Length Bearing (true) Bearing (mag) Surface Threshold Offset Overrun Length
16L 196 ft / 60 m 7,162 ft / 2,183 m 149.61° 157.02° Asphalt 190 ft / 58 m 0 ft / 0 m
16R 196 ft / 60 m 13,142 ft / 4,006 m 149.61° 157.02° Asphalt 0 ft / 0 m 410 ft / 125 m
34L 196 ft / 60 m 13,142 ft / 4,006 m 329.62° 337.03° Asphalt 0 ft / 0 m 415 ft / 126 m
34R 196 ft / 60 m 7,162 ft / 2,183 m 329.62° 337.03° Asphalt 190 ft / 58 m 0 ft / 0 m

RKJK

Details ICAO RKJK (KUV)
Name KUNSAN AB
Region South Korea
Timezone Asia/Seoul (UTC+9.0)
Stats Elevation 29 ft / 9 m (AMSL)
Location 35.903756° 126.615893°
Runways 1
Magnetic Variation 7.901° W

METAR

RKJK 132056Z AUTO 11005KT 10SM R36/4500FT CLR M09/M11 A3049 RMK AO2 SLP330 T10901111 55003

Decode

TAF

TAF TAF AMD RKJK 131900Z 1319/1421 VRB06KT 9999 SKC QNH3043INS BECMG 1405/1406 35012KT 9999 SCT090 QNH3048INS TXM01/1406Z TNM09/1321Z

Decode

Destination Runways

ID Width Length Bearing (true) Bearing (mag) Surface Threshold Offset Overrun Length
18 150 ft / 46 m 9,020 ft / 2,749 m 169.09° 176.99° Concrete 0 ft / 0 m 996 ft / 304 m
36 150 ft / 46 m 9,020 ft / 2,749 m 349.09° 356.99° Concrete 0 ft / 0 m 1,000 ft / 305 m

Approach Navaids

Runway Type Ident Frequency Range Bearing (true) Bearing (mag) Slope Elevation
18 Localiser KUZZ 110.30 MHz 18 nm / 33 km 169.11° 177.01° - 29 ft / 9 m (AMSL)
18 Glidescope KUZZ 110.30 MHz 10 nm / 19 km 168.00° 175.90° 3.00° 19 ft / 6 m (AMSL)
36 Localiser IKUZ 110.30 MHz 18 nm / 33 km 349.11° 357.01° - 32 ft / 10 m (AMSL)
36 Glidescope IKUZ 110.30 MHz 10 nm / 19 km 348.41° 356.31° 3.00° 29 ft / 9 m (AMSL)